Time;durP1;ratioP1;P1;durP2;ratioP2;P2;SDS_P1;SDS_P2;PMS_P1;PMS_P2;Temp;Humidity;BMP_temperature;BMP_pressure;BME280_temperature;BME280_humidity;BME280_pressure;Samples;Min_cycle;Max_cycle;Signal;HPM_P1;HPM_P2
2022/07/13 00:02:07;;;;;;;2.67;1.97;;;;;;;17.18;60.13;99473.06;6152168;23;20698;-60
2022/07/13 00:04:33;;;;;;;2.90;2.13;;;;;;;17.17;60.22;99472.25;6152049;23;20212;-60
2022/07/13 00:07:00;;;;;;;4.67;2.30;;;;;;;17.18;60.16;99480.81;6151847;23;20543;-60
2022/07/13 00:09:27;;;;;;;5.20;2.37;;;;;;;17.19;60.37;99490.19;6152656;23;20177;-60
2022/07/13 00:11:55;;;;;;;6.63;2.20;;;;;;;17.21;59.68;99483.13;6152495;23;20199;-59
2022/07/13 00:14:22;;;;;;;3.70;2.10;;;;;;;17.20;59.75;99481.50;6151927;23;20542;-60
2022/07/13 00:16:49;;;;;;;4.63;2.50;;;;;;;17.04;59.86;99481.28;6152691;23;20200;-60
2022/07/13 00:19:16;;;;;;;4.90;2.40;;;;;;;16.98;60.51;99474.94;6152605;23;20176;-60
2022/07/13 00:21:42;;;;;;;3.40;2.20;;;;;;;17.00;60.71;99479.97;6152417;23;20201;-60
2022/07/13 00:24:09;;;;;;;4.13;2.20;;;;;;;17.03;60.67;99474.50;6151999;23;20184;-60
2022/07/13 00:26:36;;;;;;;5.17;2.30;;;;;;;17.02;59.90;99473.69;6152298;23;20204;-60
2022/07/13 00:29:04;;;;;;;5.07;2.20;;;;;;;17.08;60.46;99474.91;6152262;23;20173;-60
2022/07/13 00:31:31;;;;;;;5.73;2.20;;;;;;;17.14;60.15;99476.91;6152173;23;20674;-60
2022/07/13 00:33:58;;;;;;;7.87;2.50;;;;;;;17.18;59.48;99467.91;6152374;23;20208;-60
2022/07/13 00:36:24;;;;;;;3.07;2.20;;;;;;;17.20;59.63;99473.75;6152204;23;20251;-60
2022/07/13 00:38:51;;;;;;;3.33;2.00;;;;;;;17.14;59.95;99469.16;6151690;23;20191;-60
2022/07/13 00:41:18;;;;;;;3.50;2.30;;;;;;;17.11;60.47;99474.63;6152403;23;20601;-60
2022/07/13 00:43:45;;;;;;;3.97;2.20;;;;;;;16.92;60.48;99473.72;6152277;23;20180;-60
2022/07/13 00:46:14;;;;;;;3.40;1.90;;;;;;;16.87;60.88;99475.94;6152085;23;20204;-60
2022/07/13 00:48:41;;;;;;;8.43;2.60;;;;;;;16.89;60.87;99474.00;6151807;23;20244;-60
2022/07/13 00:51:08;;;;;;;3.63;2.20;;;;;;;16.87;60.56;99475.94;6152032;23;20197;-60
2022/07/13 00:53:38;;;;;;;4.73;2.53;;;;;;;16.72;60.45;99472.13;6151542;23;20707;-60
2022/07/13 00:56:07;;;;;;;3.13;2.40;;;;;;;16.57;60.75;99473.53;6151855;23;20208;-60
2022/07/13 00:58:34;;;;;;;4.53;2.80;;;;;;;16.50;61.21;99468.94;6152057;23;20173;-60
2022/07/13 01:01:01;;;;;;;4.57;2.50;;;;;;;16.55;60.98;99467.69;6151963;23;20197;-60
2022/07/13 01:03:29;;;;;;;4.70;2.87;;;;;;;16.58;60.89;99470.84;6151932;23;20173;-60
2022/07/13 01:05:56;;;;;;;4.90;2.30;;;;;;;16.62;60.89;99466.19;6152068;23;20259;-60
2022/07/13 01:08:23;;;;;;;6.57;2.50;;;;;;;16.66;61.26;99462.38;6151251;23;20184;-60
2022/07/13 01:10:51;;;;;;;3.77;2.67;;;;;;;16.61;61.14;99464.56;6151733;23;20601;-60
2022/07/13 01:13:19;;;;;;;4.83;2.40;;;;;;;16.62;61.50;99466.19;6151463;23;20235;-60
2022/07/13 01:15:46;;;;;;;4.37;2.30;;;;;;;16.64;61.64;99451.34;6151898;23;20220;-60
2022/07/13 01:18:13;;;;;;;4.73;2.33;;;;;;;16.64;61.76;99459.09;6151863;23;20180;-60
2022/07/13 01:20:42;;;;;;;4.67;2.33;;;;;;;16.62;62.19;99455.88;6151886;23;20545;-60
2022/07/13 01:23:12;;;;;;;5.83;2.77;;;;;;;16.58;61.64;99459.66;6151610;23;20184;-60
2022/07/13 01:25:39;;;;;;;6.07;2.83;;;;;;;16.52;61.87;99461.88;6151779;23;20207;-60
2022/07/13 01:28:06;;;;;;;5.37;2.50;;;;;;;16.40;61.96;99465.53;6151323;23;20184;-60
2022/07/13 01:30:32;;;;;;;4.73;3.00;;;;;;;16.35;61.89;99459.16;6151143;23;20192;-60
2022/07/13 01:32:59;;;;;;;4.73;2.83;;;;;;;16.22;62.43;99464.63;6151382;23;20216;-60
2022/07/13 01:35:27;;;;;;;7.17;2.87;;;;;;;16.17;62.18;99466.81;6151578;23;20184;-60
2022/07/13 01:37:55;;;;;;;22.00;3.57;;;;;;;16.09;62.77;99469.28;6151603;23;20173;-60
2022/07/13 01:40:23;;;;;;;4.10;2.50;;;;;;;15.98;62.79;99471.03;6151308;23;20177;-60
2022/07/13 01:42:52;;;;;;;8.80;2.80;;;;;;;15.84;63.23;99466.28;6151040;23;20519;-60
2022/07/13 01:45:22;;;;;;;5.77;2.70;;;;;;;15.79;63.38;99463.28;6150617;23;20177;-60
2022/07/13 01:47:51;;;;;;;5.07;2.57;;;;;;;15.73;63.81;99466.41;6151910;23;20235;-60
2022/07/13 01:50:19;;;;;;;4.90;2.60;;;;;;;15.68;63.82;99465.97;6151296;23;20184;-60
2022/07/13 01:52:46;;;;;;;5.60;2.80;;;;;;;15.71;64.03;99466.56;6150981;23;20180;-60
2022/07/13 01:55:14;;;;;;;3.57;2.20;;;;;;;15.71;63.83;99463.16;6151165;23;20585;-60
2022/07/13 01:57:43;;;;;;;5.33;2.60;;;;;;;15.72;63.68;99463.00;6151763;23;20186;-61
2022/07/13 02:00:13;;;;;;;3.87;2.67;;;;;;;15.70;64.30;99461.50;6151135;23;20184;-60
2022/07/13 02:02:40;;;;;;;5.77;2.40;;;;;;;15.73;64.15;99461.25;6151096;23;20780;-60
2022/07/13 02:05:09;;;;;;;4.63;2.40;;;;;;;15.68;64.20;99465.97;6151630;23;20180;-60
2022/07/13 02:07:36;;;;;;;8.87;2.73;;;;;;;15.70;63.98;99466.66;6150916;23;20654;-60
2022/07/13 02:10:04;;;;;;;6.43;2.87;;;;;;;15.65;64.26;99461.06;6151025;23;20184;-60
2022/07/13 02:12:31;;;;;;;4.67;2.50;;;;;;;15.66;64.36;99466.09;6150982;23;20674;-60
2022/07/13 02:14:59;;;;;;;4.40;2.30;;;;;;;15.66;64.28;99465.28;6151076;23;20219;-60
2022/07/13 02:17:26;;;;;;;3.60;2.30;;;;;;;15.68;64.63;99463.41;6151322;23;20197;-60
2022/07/13 02:19:52;;;;;;;4.87;2.40;;;;;;;15.52;64.42;99466.47;6150705;23;20179;-60
2022/07/13 02:22:19;;;;;;;2.70;2.30;;;;;;;15.54;64.42;99465.41;6151116;23;20201;-60
2022/07/13 02:24:46;;;;;;;4.10;2.20;;;;;;;15.51;64.70;99457.94;6151125;23;20400;-60
2022/07/13 02:27:13;;;;;;;3.33;2.23;;;;;;;15.46;65.04;99452.38;6150912;23;20197;-60
2022/07/13 02:29:40;;;;;;;3.53;2.27;;;;;;;15.40;64.88;99452.91;6150652;23;20180;-59
2022/07/13 02:32:08;;;;;;;4.87;2.10;;;;;;;15.46;64.78;99452.38;6151138;23;20666;-60
2022/07/13 02:34:37;;;;;;;3.60;2.00;;;;;;;15.39;65.04;99461.59;6150640;23;20208;-59
2022/07/13 02:37:04;;;;;;;3.00;2.00;;;;;;;15.26;65.21;99461.00;6150853;23;20195;-60
2022/07/13 02:39:31;;;;;;;3.77;2.23;;;;;;;15.12;65.78;99455.25;6150837;23;20211;-60
2022/07/13 02:41:58;;;;;;;2.67;2.20;;;;;;;15.06;66.41;99460.13;6150844;23;20199;-60
2022/07/13 02:44:25;;;;;;;2.20;1.90;;;;;;;15.00;66.45;99451.16;6150629;23;20525;-60
2022/07/13 02:46:51;;;;;;;4.07;2.10;;;;;;;15.04;66.44;99447.41;6151287;23;20266;-59
2022/07/13 02:49:19;;;;;;;5.13;2.03;;;;;;;14.96;66.78;99454.13;6150490;23;20181;-59
2022/07/13 02:51:46;;;;;;;2.63;1.90;;;;;;;14.90;67.06;99450.31;6151025;23;20199;-59
2022/07/13 02:54:13;;;;;;;9.33;2.33;;;;;;;14.89;67.04;99453.81;6150357;23;20211;-59
2022/07/13 02:56:40;;;;;;;4.40;2.00;;;;;;;14.88;67.37;99455.59;6151288;23;20208;-59
2022/07/13 02:59:07;;;;;;;3.03;2.40;;;;;;;14.80;67.59;99444.28;6150892;23;20232;-60
2022/07/13 03:01:33;;;;;;;4.83;2.27;;;;;;;14.72;67.67;99447.53;6151416;23;20201;-60
2022/07/13 03:04:00;;;;;;;6.70;2.00;;;;;;;14.71;67.93;99451.84;6150357;23;20209;-59
2022/07/13 03:06:28;;;;;;;5.43;2.20;;;;;;;14.68;68.13;99449.53;6151420;23;20424;-60
2022/07/13 03:08:55;;;;;;;2.97;2.00;;;;;;;14.68;68.33;99449.53;6152594;23;20555;-60
2022/07/13 03:11:22;;;;;;;2.87;2.10;;;;;;;14.58;68.68;99450.44;6152814;23;20256;-59
2022/07/13 03:13:48;;;;;;;4.97;2.20;;;;;;;14.64;68.58;99448.16;6152510;23;20204;-60
2022/07/13 03:16:15;;;;;;;2.40;2.00;;;;;;;14.66;68.71;99448.84;6152838;23;20203;-60
2022/07/13 03:18:42;;;;;;;3.20;1.97;;;;;;;14.67;68.76;99447.91;6152815;23;20177;-60
2022/07/13 03:21:09;;;;;;;4.53;2.10;;;;;;;14.67;68.89;99441.94;6152774;23;20200;-60
2022/07/13 03:23:37;;;;;;;7.07;2.20;;;;;;;14.70;68.85;99445.06;6152965;23;20174;-59
2022/07/13 03:26:05;;;;;;;3.37;2.00;;;;;;;14.67;68.82;99439.38;6153033;23;20206;-59
2022/07/13 03:28:32;;;;;;;3.30;2.13;;;;;;;14.67;68.82;99445.34;6152845;23;20675;-60
2022/07/13 03:30:59;;;;;;;2.40;2.00;;;;;;;14.71;69.06;99446.69;6152971;23;20291;-60
2022/07/13 03:33:26;;;;;;;2.77;2.00;;;;;;;14.68;68.93;99452.09;6153192;23;20211;-59
2022/07/13 03:35:53;;;;;;;2.83;2.17;;;;;;;14.71;69.55;99449.28;6153004;23;20201;-59
2022/07/13 03:38:20;;;;;;;3.97;1.70;;;;;;;14.71;69.26;99449.28;6152498;23;20190;-59
2022/07/13 03:40:48;;;;;;;2.37;1.80;;;;;;;14.71;69.57;99445.88;6152643;23;20195;-59
2022/07/13 03:43:15;;;;;;;3.87;2.17;;;;;;;14.77;69.69;99444.56;6152674;23;20522;-59
2022/07/13 03:45:42;;;;;;;2.67;1.93;;;;;;;14.78;69.71;99446.22;6152967;23;20212;-59
2022/07/13 03:48:09;;;;;;;4.87;2.20;;;;;;;14.71;69.83;99449.28;6152655;23;20179;-59
2022/07/13 03:50:36;;;;;;;4.27;2.40;;;;;;;14.73;70.23;99456.06;6152258;23;20196;-59
2022/07/13 03:53:02;;;;;;;3.70;2.30;;;;;;;14.77;70.13;99447.94;6152068;23;20558;-59
2022/07/13 03:55:29;;;;;;;7.57;2.40;;;;;;;14.77;70.26;99450.50;6152262;23;20210;-60
2022/07/13 03:57:57;;;;;;;4.83;2.00;;;;;;;14.76;70.24;99453.22;6152401;23;20169;-59
2022/07/13 04:00:24;;;;;;;7.17;2.20;;;;;;;14.79;70.50;99450.41;6152355;23;20178;-60
2022/07/13 04:02:51;;;;;;;5.40;2.53;;;;;;;14.86;70.26;99448.94;6151938;23;20566;-59
2022/07/13 04:05:18;;;;;;;7.27;2.20;;;;;;;14.84;70.56;99455.97;6152363;23;20182;-59
2022/07/13 04:07:45;;;;;;;3.83;2.20;;;;;;;14.91;70.52;99459.66;6152853;23;20186;-60
2022/07/13 04:10:11;;;;;;;3.97;2.00;;;;;;;14.95;70.37;99458.44;6152054;23;20382;-59
2022/07/13 04:12:38;;;;;;;3.57;2.00;;;;;;;15.10;70.25;99458.94;6152727;23;20183;-60
2022/07/13 04:15:07;;;;;;;2.73;2.00;;;;;;;15.23;70.23;99461.25;6152396;23;20224;-60
2022/07/13 04:17:34;;;;;;;3.47;2.27;;;;;;;15.30;69.81;99460.63;6151800;23;20511;-60
2022/07/13 04:20:01;;;;;;;2.83;2.00;;;;;;;15.39;69.29;99471.91;6152122;23;20175;-60
2022/07/13 04:22:28;;;;;;;3.80;1.80;;;;;;;15.45;69.22;99470.56;6151935;23;20268;-60
2022/07/13 04:24:55;;;;;;;3.30;2.00;;;;;;;15.55;68.74;99466.22;6152339;23;20592;-60
2022/07/13 04:27:21;;;;;;;3.03;2.00;;;;;;;15.68;68.46;99471.13;6152306;23;20206;-60
2022/07/13 04:29:48;;;;;;;3.33;2.07;;;;;;;15.81;68.18;99466.56;6151947;23;20184;-60
2022/07/13 04:37:46;;;;;;;3.97;2.10;;;;;;;16.30;67.10;99462.19;6152150;23;20172;-60
2022/07/13 04:40:13;;;;;;;6.13;2.20;;;;;;;16.50;66.64;99458.63;6150820;23;20187;-60
2022/07/13 04:42:40;;;;;;;4.10;1.90;;;;;;;16.69;66.44;99462.09;6152517;23;20177;-60
2022/07/13 04:45:07;;;;;;;3.10;2.10;;;;;;;16.89;65.04;99463.69;6151808;23;20630;-60
2022/07/13 04:47:37;;;;;;;4.50;1.80;;;;;;;17.02;64.37;99467.72;6151934;23;20176;-60
2022/07/13 04:50:04;;;;;;;4.23;2.47;;;;;;;17.20;63.22;99471.16;6152383;23;20172;-60
2022/07/13 04:52:32;;;;;;;2.53;2.00;;;;;;;17.39;63.41;99465.91;6152113;23;20336;-60
2022/07/13 04:54:59;;;;;;;3.97;1.90;;;;;;;17.63;62.53;99467.13;6151461;23;20294;-60
2022/07/13 04:57:25;;;;;;;5.23;1.90;;;;;;;17.87;62.50;99463.97;6152049;23;20208;-60
2022/07/13 04:59:52;;;;;;;2.23;1.90;;;;;;;18.03;60.21;99473.63;6151587;23;20247;-60
2022/07/13 05:02:19;;;;;;;4.00;1.93;;;;;;;18.30;59.68;99470.94;6151757;23;20197;-60
2022/07/13 05:04:47;;;;;;;2.60;2.10;;;;;;;18.42;59.65;99468.13;6151744;23;20177;-60
2022/07/13 05:07:14;;;;;;;4.10;2.07;;;;;;;18.72;60.16;99465.03;6151682;23;20198;-60
2022/07/13 05:09:41;;;;;;;4.10;2.13;;;;;;;18.95;56.12;99464.53;6151626;23;20176;-60
2022/07/13 05:12:07;;;;;;;3.10;2.10;;;;;;;19.12;56.17;99471.41;6151689;23;20599;-59
2022/07/13 05:14:35;;;;;;;3.10;1.93;;;;;;;19.17;55.38;99474.34;6150900;23;20206;-60
2022/07/13 05:17:02;;;;;;;3.23;2.03;;;;;;;19.36;55.40;99475.06;6151448;23;20574;-60
2022/07/13 05:19:29;;;;;;;4.37;1.70;;;;;;;19.60;55.92;99475.09;6151727;23;20235;-60
2022/07/13 05:21:57;;;;;;;3.40;2.10;;;;;;;19.79;55.04;99468.84;6152098;23;20199;-60
2022/07/13 05:29:53;;;;;;;3.83;1.90;;;;;;;20.37;53.93;99464.47;6151232;23;20235;-60
2022/07/13 05:32:19;;;;;;;4.60;2.10;;;;;;;20.47;52.36;99464.28;6150962;23;20201;-60
2022/07/13 05:34:46;;;;;;;3.60;1.90;;;;;;;20.60;51.67;99472.41;6151825;23;20209;-60
2022/07/13 05:37:15;;;;;;;2.47;1.80;;;;;;;20.86;52.13;99466.97;6151447;23;20544;-60
2022/07/13 05:39:44;;;;;;;3.37;1.90;;;;;;;21.05;52.66;99463.16;6151877;23;20349;-60
2022/07/13 05:42:11;;;;;;;5.27;1.90;;;;;;;21.13;49.98;99468.31;6150609;23;20198;-60
2022/07/13 05:44:38;;;;;;;4.60;2.10;;;;;;;21.22;50.03;99461.28;6151330;23;20178;-60
2022/07/13 05:47:05;;;;;;;3.70;2.10;;;;;;;21.17;49.37;99468.78;6150558;23;20226;-60
2022/07/13 05:49:32;;;;;;;4.83;2.13;;;;;;;21.36;50.23;99463.22;6150907;23;20202;-60
2022/07/13 05:51:59;;;;;;;4.97;2.03;;;;;;;21.57;49.78;99464.38;6151519;23;20195;-60
2022/07/13 05:54:27;;;;;;;2.70;1.70;;;;;;;21.74;49.34;99473.69;6150969;23;20222;-60
2022/07/13 05:56:54;;;;;;;5.07;1.90;;;;;;;21.82;48.20;99465.84;6151001;23;20559;-60
2022/07/13 05:59:21;;;;;;;3.23;1.80;;;;;;;21.89;49.71;99468.56;6151335;23;20180;-60
2022/07/13 06:01:48;;;;;;;3.63;1.80;;;;;;;22.18;48.56;99467.84;6150876;23;20205;-60
2022/07/13 06:04:15;;;;;;;2.93;1.90;;;;;;;22.31;47.83;99456.81;6150923;23;20540;-60
2022/07/13 06:06:41;;;;;;;3.50;2.03;;;;;;;22.27;46.55;99465.97;6151417;23;20203;-60
2022/07/13 06:09:08;;;;;;;2.00;1.80;;;;;;;22.30;47.63;99465.63;6150800;23;20191;-60
2022/07/13 06:11:37;;;;;;;2.27;1.83;;;;;;;22.35;45.79;99464.13;6150949;23;20783;-60
2022/07/13 06:14:04;;;;;;;2.57;1.87;;;;;;;22.69;48.18;99465.41;6150859;23;20259;-60
2022/07/13 06:16:31;;;;;;;5.07;1.90;;;;;;;22.85;45.27;99463.59;6148888;23;20202;-60
2022/07/13 06:18:58;;;;;;;5.53;1.80;;;;;;;23.09;46.45;99458.09;6151069;23;20541;-61
2022/07/13 06:21:26;;;;;;;3.70;1.80;;;;;;;23.22;47.13;99466.09;6150600;23;20760;-60
2022/07/13 06:23:53;;;;;;;3.70;1.67;;;;;;;23.31;45.09;99468.59;6150682;23;20177;-60
2022/07/13 06:26:20;;;;;;;2.33;1.70;;;;;;;23.46;44.30;99466.75;6150320;23;20211;-60
2022/07/13 06:28:48;;;;;;;3.30;1.67;;;;;;;23.59;44.59;99471.28;6150533;23;20634;-60
2022/07/13 06:31:15;;;;;;;2.38;1.90;;;;;;;23.85;44.59;99470.75;6149826;23;20204;-60
2022/07/13 06:33:42;;;;;;;4.00;1.60;;;;;;;23.88;44.53;99470.38;6150903;23;20177;-60
2022/07/13 06:36:09;;;;;;;6.72;2.08;;;;;;;24.01;44.88;99472.31;6149978;23;20635;-60
2022/07/13 06:38:36;;;;;;;5.15;1.80;;;;;;;24.10;43.61;99469.38;6150004;23;20530;-60
2022/07/13 06:41:03;;;;;;;3.65;1.90;;;;;;;24.34;43.02;99469.94;6149608;23;20204;-60
2022/07/13 06:43:30;;;;;;;2.65;1.65;;;;;;;24.37;43.24;99464.34;6150503;23;20200;-60
2022/07/13 06:45:58;;;;;;;4.18;1.65;;;;;;;24.52;43.34;99470.31;6149826;23;20659;-60
2022/07/13 06:48:25;;;;;;;3.65;1.83;;;;;;;24.43;43.53;99470.63;6149982;23;20455;-60
2022/07/13 06:50:52;;;;;;;8.73;2.03;;;;;;;24.61;43.82;99466.53;6150114;23;20208;-59
2022/07/13 06:53:18;;;;;;;3.85;1.80;;;;;;;24.88;43.96;99471.91;6150315;23;20562;-61
2022/07/13 06:55:45;;;;;;;6.13;1.75;;;;;;;25.03;45.98;99464.72;6150038;23;20212;-59
2022/07/13 06:58:12;;;;;;;3.10;1.80;;;;;;;25.24;41.59;99468.25;6150000;23;20706;-59
2022/07/13 07:00:39;;;;;;;4.38;1.70;;;;;;;25.21;43.21;99460.78;6150159;23;20196;-59
2022/07/13 07:03:07;;;;;;;2.00;1.70;;;;;;;25.53;41.82;99475.75;6150116;23;20181;-59
2022/07/13 07:05:34;;;;;;;2.60;2.05;;;;;;;25.52;41.84;99478.59;6150507;23;20541;-59
2022/07/13 07:08:02;;;;;;;3.03;1.60;;;;;;;25.62;43.24;99472.97;6149992;23;20173;-60
2022/07/13 07:10:29;;;;;;;1.70;1.52;;;;;;;26.10;41.87;99475.47;6150753;23;20219;-60
2022/07/13 07:12:56;;;;;;;3.92;1.60;;;;;;;26.17;39.40;99476.25;6150597;23;20196;-60
2022/07/13 07:15:24;;;;;;;2.22;1.50;;;;;;;25.87;40.43;99487.13;6150239;23;20208;-60
2022/07/13 07:17:51;;;;;;;3.55;1.50;;;;;;;26.15;42.02;99478.25;6150429;23;20650;-60
2022/07/13 07:20:19;;;;;;;4.80;1.73;;;;;;;26.42;40.71;99481.69;6150507;23;20184;-60
2022/07/13 07:22:46;;;;;;;3.50;1.50;;;;;;;26.59;39.01;99479.47;6150340;23;20181;-59
2022/07/13 07:25:14;;;;;;;2.22;1.50;;;;;;;26.90;41.65;99477.94;6150230;23;20260;-60
2022/07/13 07:27:42;;;;;;;2.38;1.50;;;;;;;26.80;39.90;99481.81;6150208;23;20181;-60
2022/07/13 07:30:09;;;;;;;3.05;1.77;;;;;;;27.00;41.51;99481.75;6149983;23;20177;-60
2022/07/13 07:32:36;;;;;;;2.20;1.73;;;;;;;26.63;39.71;99485.91;6150047;23;20204;-61
2022/07/13 07:35:03;;;;;;;4.88;1.75;;;;;;;27.05;40.57;99483.75;6150171;23;20283;-60
2022/07/13 07:37:31;;;;;;;6.72;1.52;;;;;;;27.47;37.43;99486.81;6150308;23;20204;-60
2022/07/13 07:39:58;;;;;;;3.15;1.50;;;;;;;27.58;37.81;99486.16;6150331;23;20177;-60
2022/07/13 07:42:25;;;;;;;2.30;1.35;;;;;;;27.88;37.76;99482.94;6150116;23;20201;-61
2022/07/13 07:44:52;;;;;;;3.08;1.33;;;;;;;27.75;39.37;99487.25;6149906;23;20220;-60
2022/07/13 07:47:22;;;;;;;4.38;1.50;;;;;;;28.21;39.16;99493.97;6149152;23;20356;-61
2022/07/13 07:49:56;;;;;;;1.83;1.42;;;;;;;28.14;35.55;99493.22;6148608;23;20181;-61
2022/07/13 07:52:23;;;;;;;1.85;1.30;;;;;;;28.37;36.56;99491.81;6148917;23;20239;-60
2022/07/13 07:54:52;;;;;;;2.28;1.48;;;;;;;28.65;33.79;99494.81;6150405;23;20212;-60
2022/07/13 07:57:19;;;;;;;3.92;1.52;;;;;;;28.64;34.27;99498.44;6150710;23;20208;-60
2022/07/13 07:59:46;;;;;;;2.08;1.25;;;;;;;28.65;34.10;99494.81;6150159;23;20173;-60
2022/07/13 08:02:13;;;;;;;3.58;1.80;;;;;;;28.41;35.90;99492.97;6150157;23;20200;-59
2022/07/13 08:04:40;;;;;;;3.97;1.33;;;;;;;28.56;35.30;99487.41;6150671;23;20177;-59
2022/07/13 08:07:08;;;;;;;2.35;1.45;;;;;;;28.60;31.86;99491.22;6151091;23;20560;-60
2022/07/13 08:09:35;;;;;;;2.90;2.03;;;;;;;28.80;33.30;99485.75;6149246;23;20597;-61
2022/07/13 08:12:05;;;;;;;9.98;1.60;;;;;;;28.86;32.08;99487.50;6152088;23;20200;-60
2022/07/13 08:14:32;;;;;;;4.30;1.17;;;;;;;29.10;32.37;99483.97;6152488;23;20177;-60
2022/07/13 08:16:59;;;;;;;2.13;1.17;;;;;;;29.22;31.76;99483.22;6151946;23;20205;-60
2022/07/13 08:19:26;;;;;;;5.95;1.30;;;;;;;28.96;31.34;99479.88;6152428;23;20540;-58
2022/07/13 08:21:56;;;;;;;2.25;1.10;;;;;;;29.08;31.05;99474.69;6151699;23;20204;-58
2022/07/13 08:24:23;;;;;;;3.22;1.20;;;;;;;29.42;31.68;99467.94;6152462;23;20177;-60
2022/07/13 08:26:52;;;;;;;1.83;1.10;;;;;;;29.28;28.64;99469.16;6152999;23;20277;-59
2022/07/13 08:29:20;;;;;;;1.33;1.15;;;;;;;29.59;31.14;99465.50;6152596;23;20463;-59
2022/07/13 08:31:49;;;;;;;1.38;1.20;;;;;;;29.78;34.00;99476.78;6152631;23;20200;-61
2022/07/13 08:39:47;;;;;;;2.70;1.23;;;;;;;29.95;30.87;99477.72;6151497;23;20176;-61
2022/07/13 08:42:14;;;;;;;3.05;1.25;;;;;;;30.31;30.54;99465.38;6151346;23;20200;-60
2022/07/13 08:44:42;;;;;;;4.30;1.20;;;;;;;30.26;32.45;99467.09;6151334;23;20173;-60
2022/07/13 08:47:11;;;;;;;2.28;1.10;;;;;;;30.19;29.04;99473.25;6148377;23;20280;-60
2022/07/13 08:49:39;;;;;;;3.10;1.30;;;;;;;30.42;30.33;99466.38;6151349;23;20184;-60
2022/07/13 08:52:08;;;;;;;6.97;1.30;;;;;;;30.50;28.91;99467.88;6150392;23;20262;-60
2022/07/13 08:54:35;;;;;;;1.27;1.10;;;;;;;30.14;28.61;99469.72;6149341;23;20455;-61
2022/07/13 08:57:03;;;;;;;1.27;1.10;;;;;;;30.16;30.20;99468.44;6148753;23;20209;-59
2022/07/13 08:59:33;;;;;;;3.40;1.10;;;;;;;30.05;29.47;99466.63;6150163;23;20177;-61
2022/07/13 09:02:02;;;;;;;2.42;1.17;;;;;;;30.24;28.41;99459.41;6150978;23;20200;-60
2022/07/13 09:04:30;;;;;;;2.92;1.30;;;;;;;30.32;28.73;99461.69;6150871;23;20184;-60
2022/07/13 09:06:58;;;;;;;2.35;1.10;;;;;;;30.20;28.27;99459.03;6151290;23;20259;-60
2022/07/13 09:09:33;;;;;;;2.25;1.00;;;;;;;30.01;27.50;99460.97;6151466;23;20188;-60
2022/07/13 09:12:16;;;;;;;2.40;1.10;;;;;;;30.28;28.27;99460.53;6150570;23;20203;-60
2022/07/13 09:14:45;;;;;;;1.15;1.05;;;;;;;30.57;29.57;99452.69;6151660;23;20533;-59
2022/07/13 09:17:38;;;;;;;1.13;1.00;;;;;;;30.57;27.25;99447.44;6148161;23;20241;-60
2022/07/13 09:20:26;;;;;;;1.90;1.20;;;;;;;30.43;27.51;99437.16;6152012;23;20264;-61
2022/07/13 09:22:55;;;;;;;2.50;1.23;;;;;;;30.43;28.39;99455.63;6142284;23;20195;-60
2022/07/13 09:25:33;;;;;;;1.83;1.10;;;;;;;30.52;29.31;99437.59;6150752;23;20179;-60
2022/07/13 09:28:04;;;;;;;2.58;1.30;;;;;;;30.61;29.43;99445.94;6151467;23;20165;-60
2022/07/13 09:30:32;;;;;;;2.80;1.10;;;;;;;30.32;28.13;99440.59;6148900;23;20717;-60
2022/07/13 09:33:01;;;;;;;1.67;1.20;;;;;;;30.51;27.97;99443.09;6150813;23;20177;-61
2022/07/13 09:35:43;;;;;;;4.00;1.40;;;;;;;30.68;30.14;99433.41;6151672;23;20279;-60
2022/07/13 09:38:10;;;;;;;2.97;1.20;;;;;;;30.72;28.42;99445.13;6150971;23;20169;-59
2022/07/13 09:40:37;;;;;;;4.80;1.42;;;;;;;30.62;27.25;99450.97;6150429;23;20204;-59
2022/07/13 09:48:34;;;;;;;4.03;1.30;;;;;;;30.63;29.27;99436.75;6151233;23;20168;-60
2022/07/13 09:51:01;;;;;;;3.35;1.25;;;;;;;30.74;27.82;99439.59;6150422;23;20204;-59
2022/07/13 09:53:30;;;;;;;2.75;1.30;;;;;;;31.04;27.64;99447.31;6151292;23;20224;-60
2022/07/13 09:55:58;;;;;;;2.22;1.15;;;;;;;30.67;30.31;99442.38;6149899;23;20212;-60
2022/07/13 09:58:29;;;;;;;4.22;1.30;;;;;;;30.80;27.89;99438.69;6151300;23;20698;-60
2022/07/13 10:00:58;;;;;;;1.50;1.27;;;;;;;30.81;27.22;99442.94;6150654;23;20205;-59
2022/07/13 10:03:26;;;;;;;1.63;1.40;;;;;;;31.08;28.36;99440.53;6151454;23;20267;-60
2022/07/13 10:05:55;;;;;;;5.20;1.20;;;;;;;31.39;29.85;99435.81;6151134;23;20193;-60
2022/07/13 10:08:22;;;;;;;2.67;1.30;;;;;;;31.18;27.98;99432.78;6150700;23;20177;-60
2022/07/13 10:10:50;;;;;;;3.92;1.60;;;;;;;30.90;27.38;99429.13;6150524;23;20193;-60
2022/07/13 10:13:18;;;;;;;4.85;1.40;;;;;;;30.87;29.78;99429.59;6147832;23;20516;-61
2022/07/13 10:15:45;;;;;;;4.72;1.30;;;;;;;31.12;27.44;99428.44;6150046;23;20718;-61
2022/07/13 10:18:18;;;;;;;3.20;1.50;;;;;;;31.44;30.68;99420.84;6150354;23;20187;-61
2022/07/13 10:20:52;;;;;;;4.35;1.40;;;;;;;31.42;28.83;99420.28;6150345;23;20263;-59
2022/07/13 10:23:31;;;;;;;3.53;1.40;;;;;;;31.49;30.60;99418.28;6149144;23;20239;-59
2022/07/13 10:25:58;;;;;;;4.20;1.40;;;;;;;31.44;28.94;99420.84;6149935;23;20215;-60
2022/07/13 10:28:25;;;;;;;1.73;1.20;;;;;;;31.45;27.83;99421.66;6150969;23;20256;-59
2022/07/13 10:30:52;;;;;;;3.38;1.13;;;;;;;31.61;27.92;99415.56;6151161;23;20524;-59
2022/07/13 10:33:20;;;;;;;1.67;1.40;;;;;;;31.45;27.84;99411.09;6150942;23;20665;-59
2022/07/13 10:35:49;;;;;;;3.95;1.40;;;;;;;31.31;29.15;99405.28;6151092;23;20568;-60
2022/07/13 10:38:20;;;;;;;4.75;1.40;;;;;;;31.39;27.18;99393.53;6150877;23;20239;-59
2022/07/13 10:40:48;;;;;;;2.47;1.55;;;;;;;31.38;27.72;99403.28;6150911;23;20197;-60
2022/07/13 10:43:16;;;;;;;3.38;1.30;;;;;;;31.51;27.00;99399.56;6150666;23;20536;-60
2022/07/13 10:45:46;;;;;;;4.28;1.20;;;;;;;31.61;25.61;99394.41;6151017;23;20197;-60
2022/07/13 10:48:42;;;;;;;1.88;1.30;;;;;;;31.32;25.29;99397.09;6148506;23;20236;-60
2022/07/13 10:51:24;;;;;;;3.45;1.30;;;;;;;31.20;25.88;99388.44;6150530;23;20196;-60
2022/07/13 10:54:10;;;;;;;2.72;1.30;;;;;;;31.26;27.40;99390.13;6146486;23;20185;-59
2022/07/13 10:56:59;;;;;;;3.40;1.35;;;;;;;31.28;27.69;99385.41;6150530;23;20251;-60
2022/07/13 10:59:46;;;;;;;1.83;1.30;;;;;;;31.17;25.46;99372.28;6150382;23;20661;-59
2022/07/13 11:02:44;;;;;;;2.25;1.60;;;;;;;31.28;27.68;99374.06;6150312;23;20207;-59
2022/07/13 11:05:11;;;;;;;6.60;1.60;;;;;;;31.59;26.38;99380.63;6148267;23;20182;-59
2022/07/13 11:07:43;;;;;;;3.63;1.38;;;;;;;31.51;26.68;99373.91;6150837;23;20191;-60
2022/07/13 11:10:24;;;;;;;5.05;1.70;;;;;;;31.40;26.10;99376.66;6149694;23;20187;-60
2022/07/13 11:13:02;;;;;;;2.85;1.50;;;;;;;31.58;27.76;99373.75;6149995;23;20761;-60
2022/07/13 11:15:44;;;;;;;4.63;1.35;;;;;;;31.71;26.02;99368.16;6150751;23;20207;-60
2022/07/13 11:18:31;;;;;;;1.73;1.30;;;;;;;31.91;27.93;99372.13;6146061;23;20238;-59
2022/07/13 11:21:00;;;;;;;2.42;1.30;;;;;;;31.50;27.31;99374.16;6150433;23;20196;-59
2022/07/13 11:26:33;;;;;;;1.35;1.23;;;;;;;31.34;25.07;99373.88;6149536;23;20737;-59
2022/07/13 11:29:11;;;;;;;1.83;1.30;;;;;;;31.24;27.86;99357.88;6151353;23;20169;-61
2022/07/13 11:31:39;;;;;;;1.48;1.23;;;;;;;31.27;26.85;99367.97;6149358;23;21053;-62
2022/07/13 11:34:06;;;;;;;2.58;1.20;;;;;;;31.43;26.17;99362.94;6150539;23;20260;-61
2022/07/13 11:36:34;;;;;;;2.20;1.30;;;;;;;31.54;25.12;99364.72;6151720;23;20208;-61
2022/07/13 11:39:01;;;;;;;1.30;1.20;;;;;;;31.62;28.60;99353.75;6151368;23;20176;-61
2022/07/13 11:41:28;;;;;;;2.40;1.20;;;;;;;31.52;25.66;99351.72;6150117;23;20204;-60
2022/07/13 11:43:55;;;;;;;2.90;1.33;;;;;;;31.49;27.38;99356.69;6149668;23;20227;-60
2022/07/13 11:46:25;;;;;;;3.08;1.10;;;;;;;31.47;28.18;99354.28;6152045;23;20200;-61
2022/07/13 11:49:02;;;;;;;2.92;1.20;;;;;;;31.60;26.14;99361.09;6151529;23;20272;-61
2022/07/13 11:51:29;;;;;;;3.95;1.13;;;;;;;31.57;24.39;99357.09;6152137;23;20196;-61
2022/07/13 11:53:56;;;;;;;2.35;1.30;;;;;;;31.60;26.93;99355.81;6149887;23;20181;-61
2022/07/13 11:56:23;;;;;;;2.40;1.20;;;;;;;31.37;25.43;99351.50;6150142;23;20216;-60
2022/07/13 11:58:50;;;;;;;2.58;1.10;;;;;;;31.49;27.32;99356.69;6150785;23;20187;-60
2022/07/13 12:01:18;;;;;;;2.58;1.27;;;;;;;31.51;27.40;99351.97;6146689;23;20193;-60
2022/07/13 12:07:13;;;;;;;1.67;1.20;;;;;;;31.21;24.17;99347.75;6148907;23;20608;-59
2022/07/13 12:09:50;;;;;;;2.28;1.20;;;;;;;31.18;24.72;99348.25;6148585;23;20188;-59